Time;durP1;ratioP1;P1;durP2;ratioP2;P2;SDS_P1;SDS_P2;PMS_P1;PMS_P2;Temp;Humidity;BMP_temperature;BMP_pressure;BME280_temperature;BME280_humidity;BME280_pressure;Samples;Min_cycle;Max_cycle;Signal;HPM_P1;HPM_P2
2023/11/28 00:00:03;;;;;;;1.00;1.00;;;;;;;2.72;90.07;96262.13;4989932;28;20581;-77
2023/11/28 00:02:38;;;;;;;0.98;0.98;;;;;;;2.76;89.74;96256.97;4992983;28;20038;-76
2023/11/28 00:05:04;;;;;;;1.10;1.10;;;;;;;2.69;89.92;96255.09;4997566;28;20065;-77
2023/11/28 00:07:32;;;;;;;1.02;1.02;;;;;;;2.63;90.67;96252.31;4994283;28;20065;-77
2023/11/28 00:09:58;;;;;;;1.00;1.00;;;;;;;2.71;90.33;96247.22;4993811;28;20052;-78
2023/11/28 00:12:24;;;;;;;0.90;0.90;;;;;;;2.70;90.00;96251.59;4991888;28;20026;-77
2023/11/28 00:14:50;;;;;;;1.08;1.08;;;;;;;2.72;89.93;96247.22;4996090;28;20476;-77
2023/11/28 00:17:15;;;;;;;0.90;0.90;;;;;;;2.72;89.54;96239.34;5006770;28;20361;-77
2023/11/28 00:19:41;;;;;;;1.00;1.00;;;;;;;2.74;90.11;96242.91;4995845;28;20029;-77
2023/11/28 00:22:06;;;;;;;0.90;0.90;;;;;;;2.75;89.48;96242.03;4993452;28;20368;-76
2023/11/28 00:24:31;;;;;;;1.00;1.00;;;;;;;2.73;89.89;96237.59;4996245;28;20026;-76
2023/11/28 00:26:57;;;;;;;1.00;1.00;;;;;;;2.77;89.78;96227.16;4994198;28;20030;-77
2023/11/28 00:29:23;;;;;;;1.00;1.00;;;;;;;2.78;89.37;96228.94;4999257;28;20454;-77
2023/11/28 00:31:48;;;;;;;1.00;1.00;;;;;;;2.70;90.15;96232.28;4994544;28;20589;-76
2023/11/28 00:34:13;;;;;;;1.00;1.00;;;;;;;2.68;90.43;96229.59;4992302;28;20205;-77
2023/11/28 00:36:39;;;;;;;1.00;1.00;;;;;;;2.69;90.61;96228.78;4994162;28;20379;-76
2023/11/28 00:39:04;;;;;;;1.00;1.00;;;;;;;2.66;91.18;96226.06;4995058;28;20026;-76
2023/11/28 00:41:32;;;;;;;0.90;0.90;;;;;;;2.71;91.01;96221.78;4998919;28;20560;-77
2023/11/28 00:43:57;;;;;;;1.10;1.10;;;;;;;2.67;90.92;96219.94;4999798;28;20029;-76
2023/11/28 00:46:23;;;;;;;1.00;1.00;;;;;;;2.66;91.40;96212.00;4997913;28;20026;-76
2023/11/28 00:48:48;;;;;;;0.90;0.90;;;;;;;2.68;91.10;96213.81;5000280;28;20057;-77
2023/11/28 00:51:17;;;;;;;0.98;0.98;;;;;;;2.70;90.69;96204.22;4997463;28;20062;-77
2023/11/28 00:53:42;;;;;;;0.90;0.90;;;;;;;2.65;91.33;96210.25;5000459;28;20459;-76
2023/11/28 00:56:09;;;;;;;1.00;1.00;;;;;;;2.65;91.28;96204.97;4996564;28;20048;-76
2023/11/28 00:58:35;;;;;;;1.00;1.00;;;;;;;2.67;91.18;96195.34;4992903;28;20026;-77
2023/11/28 01:01:01;;;;;;;0.90;0.90;;;;;;;2.70;91.49;96193.69;4997075;28;20769;-77
2023/11/28 01:03:26;;;;;;;1.00;1.00;;;;;;;2.71;91.87;96203.34;4993494;28;20129;-76
2023/11/28 01:05:51;;;;;;;1.00;1.00;;;;;;;2.66;91.78;96197.09;5001322;28;20041;-76
2023/11/28 01:08:17;;;;;;;1.00;1.00;;;;;;;2.69;92.02;96201.56;4999376;28;20034;-76
2023/11/28 01:10:42;;;;;;;1.00;1.00;;;;;;;2.73;92.41;96192.81;4996307;28;20414;-76
2023/11/28 01:13:08;;;;;;;0.90;0.90;;;;;;;2.72;91.94;96196.31;4995884;28;20039;-77
2023/11/28 01:15:33;;;;;;;0.90;0.90;;;;;;;2.68;91.52;96192.75;4993560;28;20064;-77
2023/11/28 01:17:59;;;;;;;1.00;1.00;;;;;;;2.69;91.47;96188.41;4994861;28;20042;-77
2023/11/28 01:20:26;;;;;;;1.00;1.00;;;;;;;2.75;90.96;96181.47;4993583;28;20026;-76
2023/11/28 01:22:52;;;;;;;0.90;0.90;;;;;;;2.73;91.68;96191.13;4991717;28;20845;-76
2023/11/28 01:25:18;;;;;;;1.00;1.00;;;;;;;2.78;91.81;96191.19;5008844;28;20756;-77
2023/11/28 01:27:43;;;;;;;1.00;1.00;;;;;;;2.73;91.98;96185.84;4994443;28;20476;-77
2023/11/28 01:30:09;;;;;;;1.00;1.00;;;;;;;2.72;91.98;96176.16;5010009;28;20188;-76
2023/11/28 01:32:35;;;;;;;0.90;0.90;;;;;;;2.73;92.08;96182.31;4993219;28;20029;-77
2023/11/28 01:35:01;;;;;;;0.90;0.90;;;;;;;2.72;92.17;96176.16;4994381;28;20077;-77
2023/11/28 01:37:26;;;;;;;1.00;1.00;;;;;;;2.75;92.02;96172.69;4995455;28;20375;-77
2023/11/28 01:39:52;;;;;;;1.00;1.00;;;;;;;2.74;92.77;96168.31;4994698;28;20883;-76
2023/11/28 01:42:17;;;;;;;1.00;1.00;;;;;;;2.73;93.13;96172.69;4998634;28;20485;-76
2023/11/28 01:44:43;;;;;;;1.00;1.00;;;;;;;2.87;92.34;96170.28;4995715;28;20057;-76
2023/11/28 01:47:08;;;;;;;1.00;1.00;;;;;;;2.75;92.91;96164.81;4994632;28;20026;-76
2023/11/28 01:49:37;;;;;;;1.00;1.00;;;;;;;2.73;92.53;96161.25;4980845;28;20117;-76
2023/11/28 01:52:04;;;;;;;1.00;1.00;;;;;;;2.76;92.40;96161.31;4996217;28;20910;-77
2023/11/28 01:54:31;;;;;;;1.10;1.10;;;;;;;2.79;92.05;96161.38;5000455;28;20134;-76
2023/11/28 01:56:57;;;;;;;1.10;1.10;;;;;;;2.81;91.96;96163.16;5005207;28;20188;-76
2023/11/28 01:59:22;;;;;;;1.00;1.00;;;;;;;2.83;91.51;96155.31;4997332;28;20400;-76
2023/11/28 02:01:50;;;;;;;1.00;1.00;;;;;;;2.87;91.69;96164.13;4998955;28;20551;-76
2023/11/28 02:04:15;;;;;;;1.00;1.00;;;;;;;2.90;91.77;96151.03;4997309;28;20089;-76
2023/11/28 02:06:42;;;;;;;1.00;1.00;;;;;;;2.90;92.09;96153.66;4999111;28;20040;-76
2023/11/28 02:09:08;;;;;;;1.00;1.00;;;;;;;2.89;92.39;96146.63;4997793;28;20522;-76
2023/11/28 02:11:33;;;;;;;1.10;1.10;;;;;;;2.96;91.74;96146.72;4996505;28;20034;-76
2023/11/28 02:13:58;;;;;;;1.00;1.00;;;;;;;2.91;92.07;96139.63;4999734;28;20069;-76
2023/11/28 02:16:24;;;;;;;1.00;1.00;;;;;;;2.87;92.52;96136.03;5001237;28;20924;-77
2023/11/28 02:18:49;;;;;;;1.00;1.00;;;;;;;2.93;92.25;96133.53;4998324;28;20030;-76
2023/11/28 02:21:15;;;;;;;1.02;1.02;;;;;;;3.01;91.50;96136.28;4998099;28;20022;-76
2023/11/28 02:23:41;;;;;;;1.00;1.00;;;;;;;2.96;92.31;96135.31;4997243;28;20140;-76
2023/11/28 02:26:17;;;;;;;0.90;0.90;;;;;;;2.95;92.48;96131.78;4999457;28;20030;-76
2023/11/28 02:28:42;;;;;;;1.00;1.00;;;;;;;2.97;93.01;96121.28;5009234;28;20714;-76
2023/11/28 02:31:09;;;;;;;0.90;0.90;;;;;;;3.00;93.15;96124.84;4996002;28;20030;-76
2023/11/28 02:33:35;;;;;;;1.00;1.00;;;;;;;3.03;92.45;96127.56;4999054;28;20491;-76
2023/11/28 02:36:00;;;;;;;1.00;1.00;;;;;;;3.03;92.46;96132.81;4995582;28;20034;-74
2023/11/28 02:38:26;;;;;;;0.90;0.90;;;;;;;3.11;92.72;96132.91;4994970;28;20376;-74
2023/11/28 02:40:51;;;;;;;1.00;1.00;;;;;;;3.02;92.76;96125.78;5000949;28;21996;-75
2023/11/28 02:43:17;;;;;;;1.00;1.00;;;;;;;3.07;92.81;96131.13;5001369;28;20080;-75
2023/11/28 02:45:44;;;;;;;1.00;1.00;;;;;;;3.09;92.92;96122.38;5001420;28;20025;-76
2023/11/28 02:48:10;;;;;;;0.90;0.90;;;;;;;3.11;93.13;96121.50;5001757;28;20164;-76
2023/11/28 02:50:37;;;;;;;0.90;0.90;;;;;;;3.06;93.08;96110.88;4995649;28;20040;-75
2023/11/28 02:53:03;;;;;;;1.00;1.00;;;;;;;3.12;93.12;96115.41;4995726;28;20412;-75
2023/11/28 02:55:29;;;;;;;0.90;0.90;;;;;;;3.15;92.47;96110.16;4997105;28;20365;-75
2023/11/28 02:57:54;;;;;;;0.88;0.88;;;;;;;3.15;93.65;96115.44;5002553;28;20550;-75
2023/11/28 03:00:19;;;;;;;1.00;1.00;;;;;;;3.23;92.92;96117.31;5003218;28;20034;-76
2023/11/28 03:02:45;;;;;;;0.90;0.90;;;;;;;3.25;92.63;96106.78;5003464;28;20018;-76
2023/11/28 03:05:10;;;;;;;0.80;0.80;;;;;;;3.18;93.33;96116.38;4995020;28;20443;-76
2023/11/28 03:07:36;;;;;;;0.82;0.82;;;;;;;3.15;93.39;96103.13;4995795;28;20042;-76
2023/11/28 03:10:01;;;;;;;0.88;0.88;;;;;;;3.19;93.29;96106.72;4999407;28;20025;-76
2023/11/28 03:12:27;;;;;;;0.90;0.90;;;;;;;3.24;92.84;96111.19;4997074;28;20030;-76
2023/11/28 03:14:54;;;;;;;1.00;1.00;;;;;;;3.25;93.28;96107.69;4997690;28;20114;-75
2023/11/28 03:17:19;;;;;;;0.90;0.90;;;;;;;3.37;92.64;96111.38;4998864;28;20069;-75
2023/11/28 03:19:45;;;;;;;1.00;1.00;;;;;;;3.28;92.93;96105.09;4993211;28;20053;-76
2023/11/28 03:22:11;;;;;;;0.90;0.90;;;;;;;3.22;92.98;96102.38;4996226;28;20048;-76
2023/11/28 03:24:36;;;;;;;0.80;0.80;;;;;;;3.21;93.34;96097.97;4994097;28;20160;-76
2023/11/28 03:27:01;;;;;;;0.90;0.90;;;;;;;3.28;93.15;96105.09;4997017;28;20103;-76
2023/11/28 03:29:27;;;;;;;0.90;0.90;;;;;;;3.28;93.33;96098.94;4999801;28;20480;-76
2023/11/28 03:31:52;;;;;;;0.85;0.85;;;;;;;3.30;93.38;96099.84;4995403;28;20034;-76
2023/11/28 03:34:18;;;;;;;0.90;0.90;;;;;;;3.20;93.98;96096.19;4994067;28;20026;-76
2023/11/28 03:36:43;;;;;;;1.00;1.00;;;;;;;3.14;94.43;96093.47;4994410;28;20117;-76
2023/11/28 03:39:10;;;;;;;1.00;1.00;;;;;;;3.15;94.40;96092.59;4986270;28;20052;-76
2023/11/28 03:41:36;;;;;;;1.00;1.00;;;;;;;3.18;94.19;96092.66;4995270;28;20022;-76
2023/11/28 03:44:01;;;;;;;0.90;0.90;;;;;;;3.19;94.23;96090.91;5000731;28;20088;-76
2023/11/28 03:46:27;;;;;;;0.90;0.90;;;;;;;3.24;94.62;96083.94;4993467;28;20034;-77
2023/11/28 03:48:53;;;;;;;1.00;1.00;;;;;;;3.23;94.16;96085.69;4995063;28;20038;-76
2023/11/28 03:51:18;;;;;;;0.90;0.90;;;;;;;3.22;94.64;96090.97;4995900;28;20030;-76
2023/11/28 03:53:44;;;;;;;0.90;0.90;;;;;;;3.24;94.51;96092.75;5006412;28;20041;-77
2023/11/28 03:56:11;;;;;;;0.98;0.98;;;;;;;3.23;94.69;96088.34;4979456;28;20592;-76
2023/11/28 03:58:36;;;;;;;0.90;0.90;;;;;;;3.18;94.99;96090.03;4997093;28;20157;-76
2023/11/28 04:01:03;;;;;;;0.90;0.90;;;;;;;3.17;94.83;96096.16;5013235;28;20030;-76
2023/11/28 04:03:28;;;;;;;0.90;0.90;;;;;;;3.30;94.62;96086.66;4997061;28;20029;-76
2023/11/28 04:05:57;;;;;;;0.90;0.90;;;;;;;3.29;94.24;96091.06;4994041;28;20080;-76
2023/11/28 04:08:23;;;;;;;0.90;0.90;;;;;;;3.42;94.02;96093.88;4998157;28;20030;-76
2023/11/28 04:10:49;;;;;;;1.00;1.00;;;;;;;3.39;93.29;96099.09;4997912;28;20026;-76
2023/11/28 04:13:15;;;;;;;0.98;0.98;;;;;;;3.52;93.07;96098.41;4996282;28;20468;-76
2023/11/28 04:15:41;;;;;;;1.00;1.00;;;;;;;3.43;93.23;96098.28;4996897;28;20029;-76
2023/11/28 04:18:09;;;;;;;0.90;0.90;;;;;;;3.45;92.83;96089.56;4995321;28;20476;-76
2023/11/28 04:20:36;;;;;;;0.98;0.98;;;;;;;3.66;91.67;96093.34;4992273;28;20487;-75
2023/11/28 04:23:01;;;;;;;0.90;0.90;;;;;;;3.59;90.58;96080.06;5008998;28;20026;-75
2023/11/28 04:25:27;;;;;;;0.90;0.90;;;;;;;3.59;89.71;96085.34;4995388;28;20026;-75
2023/11/28 04:27:53;;;;;;;0.90;0.90;;;;;;;3.63;88.87;96078.34;4995774;28;20049;-76
2023/11/28 04:30:18;;;;;;;1.00;1.00;;;;;;;3.62;88.15;96081.84;4993235;28;20539;-76
2023/11/28 04:32:44;;;;;;;0.90;0.90;;;;;;;3.60;88.88;96083.59;4995330;28;20714;-76
2023/11/28 04:35:09;;;;;;;0.82;0.82;;;;;;;3.54;89.53;96078.22;4996994;28;20030;-76
2023/11/28 04:37:35;;;;;;;0.90;0.90;;;;;;;3.50;89.95;96079.94;5001182;28;20033;-77
2023/11/28 04:40:04;;;;;;;0.90;0.90;;;;;;;3.60;89.59;96086.22;4992411;28;20036;-76
2023/11/28 04:42:31;;;;;;;0.90;0.90;;;;;;;3.56;90.02;96081.78;4997386;28;20480;-77
2023/11/28 04:44:56;;;;;;;0.90;0.90;;;;;;;3.48;91.06;96072.88;4996335;28;20038;-77
2023/11/28 04:47:21;;;;;;;1.00;1.00;;;;;;;3.52;91.11;96082.59;4997208;28;20038;-77
2023/11/28 04:49:47;;;;;;;0.90;0.90;;;;;;;3.52;90.92;96072.06;5007645;28;20084;-77
2023/11/28 04:52:12;;;;;;;0.90;0.90;;;;;;;3.51;91.08;96075.56;4979692;28;20044;-77
2023/11/28 04:54:38;;;;;;;0.90;0.90;;;;;;;3.49;91.57;96074.63;4994565;28;20440;-78
2023/11/28 04:57:04;;;;;;;1.00;1.00;;;;;;;3.46;92.21;96078.13;4994363;28;20436;-77
2023/11/28 04:59:30;;;;;;;1.00;1.00;;;;;;;3.46;92.14;96077.25;4997188;28;20033;-77
2023/11/28 05:01:56;;;;;;;0.90;0.90;;;;;;;3.57;92.12;96078.28;4997850;28;20034;-77
2023/11/28 05:04:21;;;;;;;0.90;0.90;;;;;;;3.61;92.18;96077.44;4993103;28;20365;-77
2023/11/28 05:06:47;;;;;;;0.80;0.80;;;;;;;3.59;91.92;96080.06;4993531;28;20026;-77
2023/11/28 05:09:17;;;;;;;0.82;0.82;;;;;;;3.61;92.30;96090.63;4994309;28;20423;-76
2023/11/28 05:11:43;;;;;;;0.80;0.80;;;;;;;3.63;92.38;96088.88;4993695;28;20109;-77
2023/11/28 05:14:08;;;;;;;0.90;0.90;;;;;;;3.78;91.90;96090.84;4996198;28;20087;-76
2023/11/28 05:16:35;;;;;;;0.80;0.80;;;;;;;3.75;92.24;96093.47;5000636;28;20406;-76
2023/11/28 05:19:00;;;;;;;0.90;0.90;;;;;;;3.72;91.74;96096.03;4993052;28;20112;-77
2023/11/28 05:21:26;;;;;;;0.80;0.80;;;;;;;3.71;91.86;96094.28;4999891;28;20029;-76
2023/11/28 05:23:55;;;;;;;0.95;0.95;;;;;;;3.65;91.75;96094.22;4997774;28;20045;-76
2023/11/28 05:26:21;;;;;;;0.90;0.90;;;;;;;3.65;91.53;96102.13;4998511;28;20687;-76
2023/11/28 05:28:48;;;;;;;0.80;0.80;;;;;;;3.70;91.80;96103.94;5002944;28;20161;-76
2023/11/28 05:31:14;;;;;;;0.90;0.90;;;;;;;3.63;91.75;96107.34;4997293;28;20133;-76
2023/11/28 05:33:40;;;;;;;1.00;1.00;;;;;;;3.68;92.21;96108.28;5000282;28;20041;-76
2023/11/28 05:36:07;;;;;;;1.00;1.00;;;;;;;3.74;91.43;96115.41;5000152;28;20026;-76
2023/11/28 05:38:33;;;;;;;0.80;0.80;;;;;;;3.73;91.50;96122.41;4997522;28;20115;-76
2023/11/28 05:40:59;;;;;;;0.80;0.80;;;;;;;3.72;91.74;96125.94;5000739;28;20029;-76
2023/11/28 05:43:29;;;;;;;0.90;0.90;;;;;;;3.72;91.61;96132.97;4995258;28;20470;-75
2023/11/28 05:45:55;;;;;;;0.90;0.90;;;;;;;3.77;91.52;96133.91;4995372;28;20472;-75
2023/11/28 05:48:20;;;;;;;1.00;1.00;;;;;;;3.66;91.96;96133.75;5002203;28;20033;-76
2023/11/28 05:50:46;;;;;;;0.90;0.90;;;;;;;3.63;92.13;96143.38;4997623;28;20038;-76
2023/11/28 05:53:12;;;;;;;1.00;1.00;;;;;;;3.67;91.71;96140.81;4998513;28;20029;-76
2023/11/28 05:55:38;;;;;;;0.90;0.90;;;;;;;3.71;91.39;96142.63;4991245;28;20096;-76
2023/11/28 05:58:04;;;;;;;0.95;0.95;;;;;;;3.66;91.56;96151.34;5000150;28;20049;-76
2023/11/28 06:00:34;;;;;;;1.10;1.10;;;;;;;3.70;90.54;96150.53;4998674;28;20030;-75
2023/11/28 06:03:00;;;;;;;1.00;1.00;;;;;;;3.65;90.90;96158.38;4997096;28;20030;-76
2023/11/28 06:05:25;;;;;;;0.90;0.90;;;;;;;3.58;90.34;96157.38;5000134;28;20361;-75
2023/11/28 06:07:52;;;;;;;1.00;1.00;;;;;;;3.52;90.04;96161.69;4998564;28;20022;-75
2023/11/28 06:10:17;;;;;;;1.10;1.10;;;;;;;3.52;89.82;96165.19;4996183;28;20042;-76
2023/11/28 06:12:43;;;;;;;0.98;0.98;;;;;;;3.57;90.22;96178.44;4995428;28;20036;-76
2023/11/28 06:15:09;;;;;;;1.00;1.00;;;;;;;3.54;89.99;96175.75;4986900;28;20113;-76
2023/11/28 06:17:35;;;;;;;1.10;1.10;;;;;;;3.54;90.01;96184.53;4995815;28;20045;-76
2023/11/28 06:20:00;;;;;;;1.00;1.00;;;;;;;3.52;90.56;96182.75;4991696;28;20090;-75
2023/11/28 06:22:26;;;;;;;0.95;0.95;;;;;;;3.48;90.86;96192.38;4979552;28;20033;-76
2023/11/28 06:24:51;;;;;;;0.90;0.90;;;;;;;3.54;89.96;96191.56;4983911;28;20144;-76
2023/11/28 06:27:17;;;;;;;0.90;0.90;;;;;;;3.39;88.95;96209.78;4997185;28;20038;-76
2023/11/28 06:29:43;;;;;;;1.00;1.00;;;;;;;3.37;88.70;96211.53;4996501;28;20037;-76
2023/11/28 06:32:09;;;;;;;1.08;1.08;;;;;;;3.21;89.02;96213.00;4991106;28;20042;-76
2023/11/28 06:34:34;;;;;;;1.00;1.00;;;;;;;3.19;89.10;96226.16;4993827;28;20033;-76
2023/11/28 06:37:00;;;;;;;1.00;1.00;;;;;;;3.09;88.54;96227.72;4993498;28;20034;-76
2023/11/28 06:39:27;;;;;;;1.00;1.00;;;;;;;3.06;89.05;96242.59;4991942;28;20124;-76
2023/11/28 06:41:53;;;;;;;1.00;1.00;;;;;;;2.91;89.89;96239.69;4993442;28;20479;-75
2023/11/28 06:44:21;;;;;;;1.10;1.10;;;;;;;2.83;88.57;96252.72;4993481;28;20042;-77
2023/11/28 06:46:47;;;;;;;1.00;1.00;;;;;;;2.72;87.55;96260.41;4995468;28;20669;-76
2023/11/28 06:49:13;;;;;;;1.10;1.10;;;;;;;2.63;88.63;96276.00;4996853;28;20157;-76
2023/11/28 06:51:38;;;;;;;1.08;1.08;;;;;;;2.58;88.74;96272.41;4997891;28;20034;-76
2023/11/28 06:54:04;;;;;;;1.00;1.00;;;;;;;2.52;88.80;96291.59;4995540;28;20085;-76
2023/11/28 06:56:30;;;;;;;1.00;1.00;;;;;;;2.41;88.92;96294.88;4996743;28;20048;-77
2023/11/28 06:58:56;;;;;;;1.00;1.00;;;;;;;2.40;88.47;96298.34;4995403;28;20570;-77
2023/11/28 07:01:23;;;;;;;1.00;1.00;;;;;;;2.28;89.04;96309.47;4995493;28;20483;-77
2023/11/28 07:03:49;;;;;;;1.10;1.10;;;;;;;2.27;88.66;96312.97;4996991;28;20570;-77
2023/11/28 07:06:14;;;;;;;1.00;1.00;;;;;;;2.18;88.82;96321.53;4996815;28;20153;-77
2023/11/28 07:08:40;;;;;;;1.00;1.00;;;;;;;2.10;89.75;96323.09;4992040;28;20084;-77
2023/11/28 07:11:06;;;;;;;0.90;0.90;;;;;;;2.01;89.20;96333.41;4995307;28;20478;-77
2023/11/28 07:13:33;;;;;;;1.00;1.00;;;;;;;1.95;89.58;96344.69;4998398;28;20030;-77
2023/11/28 07:15:58;;;;;;;1.10;1.10;;;;;;;1.83;89.25;96351.41;4995279;28;20032;-77
2023/11/28 07:18:24;;;;;;;1.02;1.02;;;;;;;1.70;89.21;96361.59;4994066;28;20378;-77
2023/11/28 07:20:50;;;;;;;1.10;1.10;;;;;;;1.72;89.48;96372.13;4995241;28;20018;-77
2023/11/28 07:23:19;;;;;;;0.90;0.90;;;;;;;1.59;90.40;96388.47;4993058;28;20030;-77
2023/11/28 07:25:46;;;;;;;1.10;1.10;;;;;;;1.51;89.80;96394.41;4995367;28;20041;-77
2023/11/28 07:28:11;;;;;;;1.10;1.10;;;;;;;1.44;90.44;96399.47;4997651;28;20030;-78
2023/11/28 07:30:37;;;;;;;1.00;1.00;;;;;;;1.39;89.56;96396.72;4997786;28;20711;-78
2023/11/28 07:33:03;;;;;;;1.10;1.10;;;;;;;1.46;89.31;96397.75;4995297;28;20033;-76
2023/11/28 07:35:28;;;;;;;1.10;1.10;;;;;;;1.47;88.97;96405.66;4999614;28;20034;-77
2023/11/28 07:37:54;;;;;;;1.10;1.10;;;;;;;1.39;89.04;96414.19;4993851;28;20429;-78
2023/11/28 07:40:19;;;;;;;1.10;1.10;;;;;;;1.44;89.22;96418.75;4993983;28;20021;-77
2023/11/28 07:42:44;;;;;;;1.00;1.00;;;;;;;1.42;89.11;96424.78;4995728;28;20034;-78
2023/11/28 07:45:10;;;;;;;1.10;1.10;;;;;;;1.38;89.47;96434.31;4997743;28;20096;-78
2023/11/28 07:47:37;;;;;;;1.00;1.00;;;;;;;1.32;90.29;96439.41;4995258;28;20029;-78
2023/11/28 07:50:02;;;;;;;1.10;1.10;;;;;;;1.25;89.83;96453.22;4995944;28;20045;-77
2023/11/28 07:52:28;;;;;;;1.10;1.10;;;;;;;1.16;89.70;96445.09;4994731;28;20034;-77
2023/11/28 07:54:53;;;;;;;1.00;1.00;;;;;;;1.09;90.27;96459.75;4992520;28;20375;-78
2023/11/28 07:57:19;;;;;;;1.10;1.10;;;;;;;1.03;89.94;96467.47;4995044;28;20054;-78
2023/11/28 07:59:46;;;;;;;1.00;1.00;;;;;;;1.02;89.95;96471.84;4994166;28;20038;-80
2023/11/28 08:02:15;;;;;;;1.00;1.00;;;;;;;0.97;90.25;96485.69;4993894;28;20447;-77
2023/11/28 08:04:40;;;;;;;1.00;1.00;;;;;;;0.88;90.50;96475.78;4994115;28;20113;-77
2023/11/28 08:07:05;;;;;;;1.00;1.00;;;;;;;0.88;89.98;96481.03;4993725;28;20295;-77
2023/11/28 08:09:31;;;;;;;1.00;1.00;;;;;;;0.85;90.82;96496.69;4995443;28;20117;-78
2023/11/28 08:11:56;;;;;;;1.10;1.10;;;;;;;0.93;90.54;96486.44;4997215;28;20480;-77
2023/11/28 08:14:22;;;;;;;1.02;1.02;;;;;;;0.89;90.09;96503.81;5001495;28;20383;-77
2023/11/28 08:16:47;;;;;;;1.10;1.10;;;;;;;0.81;90.39;96514.91;4994829;28;20127;-77
2023/11/28 08:19:13;;;;;;;1.02;1.02;;;;;;;0.75;90.51;96526.13;4993125;28;20034;-77
2023/11/28 08:21:38;;;;;;;1.10;1.10;;;;;;;0.71;90.54;96535.63;4995107;28;20038;-77
2023/11/28 08:24:04;;;;;;;1.10;1.10;;;;;;;0.67;91.17;96541.63;4979408;28;20030;-78
2023/11/28 08:26:30;;;;;;;1.00;1.00;;;;;;;0.72;90.67;96557.53;4993212;28;20460;-78
2023/11/28 08:28:55;;;;;;;1.10;1.10;;;;;;;0.88;90.20;96558.91;4995468;28;20458;-77
2023/11/28 08:31:21;;;;;;;1.08;1.08;;;;;;;0.82;90.97;96562.22;4993259;28;20057;-78
2023/11/28 08:33:47;;;;;;;1.00;1.00;;;;;;;0.81;90.42;96578.78;4996384;28;20491;-78
2023/11/28 08:36:12;;;;;;;1.10;1.10;;;;;;;0.83;90.33;96578.88;4996271;28;20038;-77
2023/11/28 08:38:38;;;;;;;1.10;1.10;;;;;;;0.85;90.31;96585.03;4993507;28;20033;-77
2023/11/28 08:41:04;;;;;;;1.10;1.10;;;;;;;0.95;90.08;96597.59;4993814;28;20023;-77
2023/11/28 08:43:29;;;;;;;1.10;1.10;;;;;;;0.87;89.89;96604.38;4994573;28;20018;-77
2023/11/28 08:45:55;;;;;;;1.00;1.00;;;;;;;0.85;89.69;96614.78;4999183;28;20034;-76
2023/11/28 08:48:20;;;;;;;1.00;1.00;;;;;;;0.79;89.42;96617.22;4993390;28;20072;-78
2023/11/28 08:50:45;;;;;;;1.10;1.10;;;;;;;0.80;89.91;96620.75;4992630;28;20096;-78
2023/11/28 08:53:11;;;;;;;1.00;1.00;;;;;;;0.69;90.39;96625.66;4995751;28;20113;-78
2023/11/28 08:55:36;;;;;;;1.05;1.05;;;;;;;0.68;89.77;96627.38;4997075;28;20034;-77
2023/11/28 08:58:02;;;;;;;1.00;1.00;;;;;;;0.56;90.01;96640.06;4993678;28;20033;-77
2023/11/28 09:00:27;;;;;;;1.08;1.08;;;;;;;0.50;91.02;96650.38;4995965;28;20053;-76
2023/11/28 09:02:53;;;;;;;1.10;1.10;;;;;;;0.62;90.49;96656.03;4998970;28;20408;-77
2023/11/28 09:05:19;;;;;;;1.10;1.10;;;;;;;0.51;91.07;96668.78;4999330;28;20097;-77
2023/11/28 09:07:44;;;;;;;1.10;1.10;;;;;;;0.56;91.11;96668.06;4995131;28;20512;-76
2023/11/28 09:10:12;;;;;;;1.10;1.10;;;;;;;0.56;90.98;96683.78;4999546;28;20041;-77
2023/11/28 09:12:37;;;;;;;1.10;1.10;;;;;;;0.62;90.71;96682.25;4998783;28;20029;-77
2023/11/28 09:15:04;;;;;;;1.10;1.10;;;;;;;0.58;90.79;96685.66;4996417;28;20048;-77
2023/11/28 09:17:29;;;;;;;1.10;1.10;;;;;;;0.58;90.89;96690.00;4996000;28;20069;-77
2023/11/28 09:19:56;;;;;;;1.10;1.10;;;;;;;0.61;90.43;96698.84;5002046;28;20050;-77
2023/11/28 09:22:21;;;;;;;1.10;1.10;;;;;;;0.60;90.15;96704.94;4996959;28;20392;-77
2023/11/28 09:24:47;;;;;;;1.10;1.10;;;;;;;0.67;90.76;96703.41;4998639;28;20045;-77
2023/11/28 09:27:13;;;;;;;1.10;1.10;;;;;;;0.66;90.29;96720.00;4999889;28;20049;-77
2023/11/28 09:29:39;;;;;;;1.10;1.10;;;;;;;0.67;90.25;96720.06;4995940;28;20038;-76
2023/11/28 09:32:05;;;;;;;1.10;1.10;;;;;;;0.70;90.53;96727.16;4997199;28;20073;-76
2023/11/28 09:34:31;;;;;;;1.10;1.10;;;;;;;0.59;90.77;96737.28;4996393;28;20065;-77
2023/11/28 09:36:57;;;;;;;1.10;1.10;;;;;;;0.58;90.65;96738.13;4997657;28;20403;-78
2023/11/28 09:39:23;;;;;;;1.00;1.00;;;;;;;0.53;90.68;96744.94;4996961;28;20030;-75
2023/11/28 09:41:50;;;;;;;1.10;1.10;;;;;;;0.49;90.94;96759.66;4999354;28;20026;-76
2023/11/28 09:44:16;;;;;;;1.10;1.10;;;;;;;0.65;90.50;96761.09;4994252;28;20559;-76
2023/11/28 09:46:48;;;;;;;1.10;1.10;;;;;;;0.61;90.75;96758.31;4996874;28;20057;-76
2023/11/28 09:49:16;;;;;;;1.10;1.10;;;;;;;0.69;90.46;96763.00;4995200;28;20157;-76
2023/11/28 09:51:46;;;;;;;1.10;1.10;;;;;;;0.65;90.30;96768.06;4994898;28;20387;-76
2023/11/28 09:54:13;;;;;;;1.10;1.10;;;;;;;0.58;90.59;96772.22;5000051;28;20416;-77
2023/11/28 09:56:41;;;;;;;1.10;1.10;;;;;;;0.70;90.71;96780.53;4996337;28;20116;-77
2023/11/28 09:59:08;;;;;;;1.10;1.10;;;;;;;0.61;90.52;96781.94;4996035;28;20617;-77
2023/11/28 10:01:37;;;;;;;1.10;1.10;;;;;;;0.65;90.63;96786.44;5001660;28;20029;-76
2023/11/28 10:04:03;;;;;;;1.10;1.10;;;;;;;0.69;90.69;96790.97;5011064;28;20030;-78
2023/11/28 10:06:28;;;;;;;1.10;1.10;;;;;;;0.65;90.74;96791.69;4997412;28;20038;-76
2023/11/28 10:08:58;;;;;;;1.10;1.10;;;;;;;0.64;90.47;96796.06;4999951;28;20415;-77
2023/11/28 10:11:25;;;;;;;1.10;1.10;;;;;;;0.64;90.68;96809.19;4993744;28;20038;-76
2023/11/28 10:13:51;;;;;;;1.00;1.00;;;;;;;0.55;90.40;96811.47;4997549;28;20120;-77
2023/11/28 10:16:39;;;;;;;1.10;1.10;;;;;;;0.63;90.48;96822.25;4992096;28;20109;-77
2023/11/28 10:19:06;;;;;;;1.10;1.10;;;;;;;0.66;90.67;96822.34;4994764;28;20030;-77
2023/11/28 10:21:33;;;;;;;1.20;1.20;;;;;;;0.68;90.56;96834.69;5000842;28;20539;-76
2023/11/28 10:23:58;;;;;;;;;;;;;;;0.75;90.37;96828.81;4992607;28;20578;-77
2023/11/28 10:26:25;;;;;;;1.08;1.08;;;;;;;0.73;89.89;96832.25;4995127;28;19925;-77
2023/11/28 10:28:50;;;;;;;1.13;1.13;;;;;;;0.71;90.23;96849.66;4996161;28;20776;-76
2023/11/28 10:31:19;;;;;;;1.10;1.10;;;;;;;0.75;89.98;96847.19;4996113;28;20549;-75
2023/11/28 10:33:45;;;;;;;1.10;1.10;;;;;;;0.89;90.13;96852.06;4995532;28;20037;-76
2023/11/28 10:36:11;;;;;;;1.05;1.05;;;;;;;0.94;89.67;96855.72;4993902;28;20093;-76
2023/11/28 10:38:37;;;;;;;1.00;1.00;;;;;;;0.89;89.43;96858.19;4994616;28;20030;-75
2023/11/28 10:41:03;;;;;;;1.10;1.10;;;;;;;0.91;88.86;96858.25;4994646;28;20018;-77
2023/11/28 10:43:29;;;;;;;1.10;1.10;;;;;;;0.82;89.29;96869.31;4994641;28;20025;-77
2023/11/28 10:45:57;;;;;;;1.10;1.10;;;;;;;0.77;89.88;96870.88;4993431;28;20033;-77
2023/11/28 10:48:23;;;;;;;1.10;1.10;;;;;;;0.70;89.92;96884.59;4994499;28;20030;-76
2023/11/28 10:50:49;;;;;;;1.10;1.10;;;;;;;0.62;89.86;96884.31;4993710;28;20118;-77
2023/11/28 10:53:16;;;;;;;1.05;1.05;;;;;;;0.59;90.01;96892.09;5008350;28;20423;-76
2023/11/28 10:55:42;;;;;;;;;;;;;;;0.65;90.02;96887.06;4976917;28;20041;-76
2023/11/28 10:58:16;;;;;;;1.00;1.00;;;;;;;0.64;90.45;96890.53;4993250;28;19976;-77
2023/11/28 11:00:45;;;;;;;1.00;1.00;;;;;;;0.59;89.88;96885.94;5002312;28;20032;-78
2023/11/28 11:03:13;;;;;;;1.10;1.10;;;;;;;0.70;89.73;96902.97;4997556;28;20044;-76
2023/11/28 11:05:39;;;;;;;1.10;1.10;;;;;;;0.68;89.85;96896.78;4995131;28;20026;-76
2023/11/28 11:08:06;;;;;;;1.10;1.10;;;;;;;0.63;88.62;96900.97;4993571;28;20121;-77
2023/11/28 11:10:31;;;;;;;1.00;1.00;;;;;;;0.58;88.70;96916.53;4993677;28;20050;-77
2023/11/28 11:13:12;;;;;;;1.10;1.10;;;;;;;0.59;88.80;96917.44;4994149;28;20119;-77
2023/11/28 11:15:45;;;;;;;1.10;1.10;;;;;;;0.57;89.31;96914.72;4993780;28;20384;-76
2023/11/28 11:18:20;;;;;;;1.10;1.10;;;;;;;0.64;88.98;96911.53;4992503;28;20129;-77
2023/11/28 11:20:51;;;;;;;1.00;1.00;;;;;;;0.62;88.38;96928.03;5007440;28;20109;-77
2023/11/28 11:23:18;;;;;;;1.10;1.10;;;;;;;0.56;88.48;96933.03;4994902;28;20038;-76
2023/11/28 11:25:51;;;;;;;1.00;1.00;;;;;;;0.61;87.55;96945.50;5009545;28;20863;-76
2023/11/28 11:28:18;;;;;;;1.10;1.10;;;;;;;0.55;88.41;96942.66;4992958;28;20433;-77
2023/11/28 11:30:45;;;;;;;1.10;1.10;;;;;;;0.54;87.94;96954.00;4992009;28;20033;-76
2023/11/28 11:33:12;;;;;;;1.10;1.10;;;;;;;0.55;87.62;96953.16;4991819;28;20046;-75
2023/11/28 11:36:02;;;;;;;1.10;1.10;;;;;;;0.61;87.71;96966.50;4994496;28;20038;-75